createdAt,value
2023-03-20T00:00:47.720Z,49.80
2023-03-20T00:03:17.314Z,47.80
2023-03-20T00:05:45.809Z,43.20
2023-03-20T00:08:14.159Z,44.40
2023-03-20T00:10:42.923Z,45.20
2023-03-20T00:13:14.621Z,42.40
2023-03-20T00:15:43.449Z,40.80
2023-03-20T00:18:18.346Z,42.40
2023-03-20T00:20:46.822Z,41.20
2023-03-20T00:23:15.465Z,43.00
2023-03-20T00:25:43.978Z,36.60
2023-03-20T00:28:39.046Z,39.00
2023-03-20T00:31:10.844Z,28.80
2023-03-20T00:33:40.412Z,28.40
2023-03-20T00:36:10.236Z,33.60
2023-03-20T00:38:38.250Z,33.00
2023-03-20T00:41:17.028Z,32.80
2023-03-20T00:43:45.127Z,44.60
2023-03-20T00:46:13.320Z,24.20
2023-03-20T00:48:43.476Z,41.40
2023-03-20T00:51:11.589Z,35.80
2023-03-20T00:53:39.960Z,24.00
2023-03-20T00:56:08.733Z,17.40
2023-03-20T00:58:36.977Z,21.00
2023-03-20T01:01:05.142Z,20.60
2023-03-20T01:03:33.296Z,14.60
2023-03-20T01:06:02.862Z,13.40
2023-03-20T01:08:31.001Z,17.80
2023-03-20T01:10:59.282Z,16.00
2023-03-20T01:13:28.035Z,14.00
2023-03-20T01:15:56.656Z,10.00
2023-03-20T01:18:25.706Z,16.20
2023-03-20T01:20:53.975Z,18.80
2023-03-20T01:23:24.623Z,15.00
2023-03-20T01:25:52.594Z,11.20
2023-03-20T01:28:23.322Z,14.20
2023-03-20T01:30:52.664Z,14.80
2023-03-20T01:33:21.358Z,13.00
2023-03-20T01:35:50.142Z,12.00
2023-03-20T01:38:20.229Z,14.20
2023-03-20T01:40:55.672Z,9.40
2023-03-20T01:43:24.356Z,14.00
2023-03-20T01:45:58.725Z,14.20
2023-03-20T01:48:28.227Z,13.80
2023-03-20T01:50:56.592Z,12.80
2023-03-20T01:53:26.019Z,14.20
2023-03-20T01:56:00.892Z,15.20
2023-03-20T01:58:30.331Z,11.60
2023-03-20T02:00:58.641Z,17.80
2023-03-20T02:03:27.487Z,16.20
2023-03-20T02:05:55.750Z,14.20
2023-03-20T02:08:26.265Z,17.00
2023-03-20T02:10:55.708Z,15.40
2023-03-20T02:13:24.091Z,13.00
2023-03-20T02:16:00.752Z,12.80
2023-03-20T02:18:29.002Z,15.60
2023-03-20T02:21:54.396Z,16.00
2023-03-20T02:25:02.449Z,16.20
2023-03-20T02:27:34.420Z,15.40
2023-03-20T02:30:24.826Z,11.20
2023-03-20T02:33:25.296Z,12.80
2023-03-20T02:36:22.278Z,12.80
2023-03-20T02:39:05.574Z,16.20
2023-03-20T02:41:38.007Z,11.80
2023-03-20T02:44:12.149Z,13.20
2023-03-20T02:46:45.802Z,13.00
2023-03-20T02:49:19.564Z,13.00
2023-03-20T02:51:51.364Z,14.20
2023-03-20T02:54:24.010Z,15.60
2023-03-20T02:56:55.140Z,12.80
2023-03-20T02:59:27.860Z,12.00
2023-03-20T03:01:57.677Z,13.00
2023-03-20T03:04:27.450Z,12.60
2023-03-20T03:06:56.114Z,10.80
2023-03-20T03:09:27.118Z,11.00
2023-03-20T03:11:58.008Z,10.80
2023-03-20T03:14:31.065Z,9.40
2023-03-20T03:16:59.692Z,10.80
2023-03-20T03:19:28.434Z,9.60
2023-03-20T03:21:56.514Z,11.20
2023-03-20T03:24:40.226Z,13.20
2023-03-20T03:27:14.357Z,13.20
2023-03-20T03:29:42.429Z,9.80
2023-03-20T03:32:22.766Z,12.60
2023-03-20T03:34:51.379Z,10.80
2023-03-20T03:37:22.685Z,7.00
2023-03-20T03:39:52.833Z,9.20
2023-03-20T03:42:23.571Z,13.40
2023-03-20T03:44:56.943Z,16.40
2023-03-20T03:47:26.822Z,11.60
2023-03-20T03:49:56.897Z,8.60
2023-03-20T03:52:28.642Z,9.80
2023-03-20T03:55:00.292Z,12.60
2023-03-20T03:57:33.551Z,10.00
2023-03-20T04:00:01.614Z,18.60
2023-03-20T04:02:29.668Z,13.40
2023-03-20T04:04:57.785Z,16.00
2023-03-20T04:07:27.402Z,9.20
2023-03-20T04:09:57.563Z,5.80
2023-03-20T04:12:37.657Z,11.60
2023-03-20T04:15:06.578Z,14.00
2023-03-20T04:17:37.605Z,10.40
2023-03-20T04:20:07.698Z,11.80
2023-03-20T04:22:36.090Z,17.20
2023-03-20T04:25:08.792Z,11.60
2023-03-20T04:27:38.353Z,12.80
2023-03-20T04:30:10.146Z,8.40
2023-03-20T04:32:38.255Z,10.80
2023-03-20T04:35:07.427Z,14.20
2023-03-20T04:37:35.449Z,10.80
2023-03-20T04:40:04.592Z,12.80
2023-03-20T04:42:32.631Z,13.40
2023-03-20T04:45:02.117Z,12.00
2023-03-20T04:47:30.115Z,10.40
2023-03-20T04:49:58.451Z,14.60
2023-03-20T04:52:26.580Z,13.80
2023-03-20T04:54:54.612Z,12.00
2023-03-20T04:57:22.672Z,10.60
2023-03-20T04:59:51.138Z,17.20
2023-03-20T05:02:20.817Z,9.80
2023-03-20T05:04:51.035Z,12.60
2023-03-20T05:07:19.244Z,15.60
2023-03-20T05:09:47.856Z,12.80
2023-03-20T05:12:15.980Z,12.20
2023-03-20T05:14:44.453Z,15.40
2023-03-20T05:17:12.565Z,13.60
2023-03-20T05:19:43.588Z,30.20
2023-03-20T05:22:15.817Z,12.20
2023-03-20T05:24:43.940Z,13.20
2023-03-20T05:27:11.982Z,18.80
2023-03-20T05:29:39.981Z,12.60
2023-03-20T05:32:08.559Z,6.60
2023-03-20T05:34:36.846Z,12.80
2023-03-20T05:37:06.305Z,9.60
2023-03-20T05:39:34.385Z,15.80
2023-03-20T05:42:02.500Z,18.20
2023-03-20T05:44:30.893Z,12.00
2023-03-20T05:46:58.974Z,15.40
2023-03-20T05:49:27.438Z,14.80
2023-03-20T05:51:55.807Z,13.00
2023-03-20T05:54:25.292Z,17.60
2023-03-20T05:56:55.713Z,15.20
2023-03-20T05:59:25.309Z,15.80
2023-03-20T06:01:53.456Z,14.80
2023-03-20T06:04:21.924Z,13.40
2023-03-20T06:06:49.942Z,15.00
2023-03-20T06:09:18.216Z,13.20
2023-03-20T06:11:49.128Z,16.60
2023-03-20T06:14:17.268Z,14.20
2023-03-20T06:16:45.554Z,9.80
2023-03-20T06:19:13.898Z,16.80
2023-03-20T06:21:42.596Z,7.60
2023-03-20T06:24:10.802Z,18.60
2023-03-20T06:26:38.787Z,10.00
2023-03-20T06:29:08.821Z,14.60
2023-03-20T06:31:36.899Z,13.80
2023-03-20T06:34:05.245Z,18.40
2023-03-20T06:36:35.166Z,9.60
2023-03-20T06:39:03.929Z,15.00
2023-03-20T06:41:35.000Z,15.20
2023-03-20T06:44:04.005Z,9.00
2023-03-20T06:46:33.622Z,16.40
2023-03-20T06:49:03.997Z,12.80
2023-03-20T06:51:33.880Z,19.00
2023-03-20T06:54:02.586Z,13.80
2023-03-20T06:56:31.210Z,18.20
2023-03-20T06:58:59.212Z,15.80
2023-03-20T07:01:28.466Z,13.40
2023-03-20T07:03:57.936Z,16.00
2023-03-20T07:06:26.691Z,10.80
2023-03-20T07:08:54.938Z,14.60
2023-03-20T07:11:25.213Z,12.00
2023-03-20T07:13:53.199Z,15.00
2023-03-20T07:16:21.323Z,20.00
2023-03-20T07:18:49.414Z,12.80
2023-03-20T07:21:23.406Z,10.00
2023-03-20T07:23:51.784Z,13.00
2023-03-20T07:26:19.823Z,15.60
2023-03-20T07:28:47.910Z,11.20
2023-03-20T07:31:21.208Z,12.40
2023-03-20T07:33:49.437Z,13.40
2023-03-20T07:36:17.843Z,12.40
2023-03-20T07:38:47.371Z,10.80
2023-03-20T07:41:15.486Z,10.00
2023-03-20T07:43:44.783Z,10.80
2023-03-20T07:46:13.511Z,11.40
2023-03-20T07:48:41.696Z,6.40
2023-03-20T07:51:09.706Z,10.80
2023-03-20T07:53:37.764Z,15.20
2023-03-20T07:56:08.657Z,14.40
2023-03-20T07:58:36.984Z,13.80
2023-03-20T08:01:05.238Z,14.40
2023-03-20T08:03:34.090Z,6.00
2023-03-20T08:06:04.314Z,12.40
2023-03-20T08:08:32.517Z,4.00
2023-03-20T08:11:01.042Z,1.80
2023-03-20T08:13:30.512Z,12.00
2023-03-20T08:15:59.649Z,11.20
2023-03-20T08:18:28.173Z,8.60
2023-03-20T08:20:57.725Z,9.00
2023-03-20T08:23:27.394Z,9.00
2023-03-20T08:25:56.429Z,10.20
2023-03-20T08:28:40.022Z,9.20
2023-03-20T08:31:14.168Z,11.20
2023-03-20T08:33:42.929Z,12.40
2023-03-20T08:36:12.179Z,19.00
2023-03-20T08:38:41.615Z,23.60
2023-03-20T08:41:10.468Z,51.80
2023-03-20T08:43:39.830Z,52.75
2023-03-20T08:46:08.742Z,36.00
2023-03-20T08:48:38.372Z,20.40
2023-03-20T08:51:07.549Z,30.40
2023-03-20T08:53:35.641Z,13.60
2023-03-20T08:56:03.799Z,12.40
2023-03-20T08:58:43.012Z,10.60
2023-03-20T09:01:12.755Z,11.20
2023-03-20T09:03:42.310Z,9.20
2023-03-20T09:06:11.314Z,7.80
2023-03-20T09:08:39.589Z,9.00
2023-03-20T09:11:08.135Z,7.00
2023-03-20T09:13:36.802Z,7.00
2023-03-20T09:16:06.976Z,9.80
2023-03-20T09:18:36.394Z,6.60
2023-03-20T09:21:06.764Z,8.80
2023-03-20T09:23:35.148Z,10.40
2023-03-20T09:26:03.427Z,9.80
2023-03-20T09:28:31.935Z,9.00
2023-03-20T09:31:00.179Z,13.80
2023-03-20T09:33:28.383Z,10.60
2023-03-20T09:35:57.620Z,16.00
2023-03-20T09:38:27.150Z,14.00
2023-03-20T09:40:56.323Z,12.20
2023-03-20T09:43:30.442Z,16.40
2023-03-20T09:46:04.496Z,13.00
2023-03-20T09:48:36.360Z,11.00
2023-03-20T09:51:06.655Z,10.40
2023-03-20T09:53:38.253Z,7.00
2023-03-20T09:56:07.053Z,9.00
2023-03-20T09:58:35.937Z,15.60
2023-03-20T10:01:05.331Z,6.60
2023-03-20T10:03:38.598Z,14.60
2023-03-20T10:06:09.130Z,11.00
2023-03-20T10:08:39.394Z,10.40
2023-03-20T10:11:16.105Z,14.60
2023-03-20T10:13:56.353Z,12.40
2023-03-20T10:16:29.886Z,11.60
2023-03-20T10:19:02.640Z,9.60
2023-03-20T10:21:34.036Z,14.60
2023-03-20T10:24:04.571Z,12.60
2023-03-20T10:26:34.227Z,13.00
2023-03-20T10:29:03.691Z,11.20
2023-03-20T10:31:36.797Z,10.00
2023-03-20T10:34:19.020Z,6.20
2023-03-20T10:36:54.214Z,7.00
2023-03-20T10:39:30.008Z,12.00
2023-03-20T10:42:00.893Z,9.80
2023-03-20T10:44:31.260Z,11.20
2023-03-20T10:46:59.321Z,3.80
2023-03-20T10:49:33.476Z,16.40
2023-03-20T10:52:02.918Z,10.40
2023-03-20T10:54:33.323Z,11.60
2023-03-20T10:57:02.137Z,13.80
2023-03-20T10:59:32.652Z,14.20
2023-03-20T11:02:01.656Z,15.60
2023-03-20T11:04:30.281Z,13.60
2023-03-20T11:07:01.382Z,12.00
2023-03-20T11:09:31.329Z,13.00
2023-03-20T11:12:01.732Z,13.00
2023-03-20T11:14:34.408Z,16.00
2023-03-20T11:17:04.065Z,13.00
2023-03-20T11:19:34.638Z,13.00
2023-03-20T11:22:08.591Z,13.00
2023-03-20T11:24:38.367Z,13.20
2023-03-20T11:27:09.103Z,7.00
2023-03-20T11:29:37.600Z,6.20
2023-03-20T11:32:08.053Z,9.00
2023-03-20T11:34:38.590Z,10.00
2023-03-20T11:37:10.825Z,9.40
2023-03-20T11:39:40.228Z,12.60
2023-03-20T11:42:23.779Z,12.00
2023-03-20T11:44:58.956Z,9.80
2023-03-20T11:47:27.828Z,7.00
2023-03-20T11:49:56.975Z,10.40
2023-03-20T11:52:27.970Z,9.80
2023-03-20T11:54:57.413Z,11.20
2023-03-20T11:57:35.078Z,6.00
2023-03-20T12:00:08.608Z,4.60
2023-03-20T12:02:37.711Z,6.40
2023-03-20T12:05:20.673Z,6.00
2023-03-20T12:07:49.670Z,6.00
2023-03-20T12:10:19.411Z,0.00
2023-03-20T12:12:51.286Z,5.60
2023-03-20T12:15:20.434Z,6.40
2023-03-20T12:17:49.907Z,4.00
2023-03-20T12:20:31.869Z,6.00
2023-03-20T12:23:04.128Z,1.00
2023-03-20T12:25:36.534Z,4.80
2023-03-20T12:28:08.004Z,7.00
2023-03-20T12:30:51.455Z,3.80
2023-03-20T12:33:22.560Z,5.20
2023-03-20T12:35:51.610Z,5.20
2023-03-20T12:38:25.479Z,5.60
2023-03-20T12:40:56.558Z,5.20
2023-03-20T12:43:27.498Z,5.20
2023-03-20T12:45:58.125Z,5.60
2023-03-20T12:48:49.918Z,0.80
2023-03-20T12:51:20.708Z,7.00
2023-03-20T12:54:29.326Z,7.20
2023-03-20T12:57:04.125Z,6.20
2023-03-20T12:59:38.621Z,3.80
2023-03-20T13:02:15.484Z,6.80
2023-03-20T13:04:48.506Z,8.00
2023-03-20T13:07:19.630Z,7.40
2023-03-20T13:10:02.119Z,12.00
2023-03-20T13:12:36.870Z,10.80
2023-03-20T13:15:15.337Z,9.00
2023-03-20T13:17:46.595Z,10.80
2023-03-20T13:20:23.062Z,13.60
2023-03-20T13:22:58.491Z,9.40
2023-03-20T13:25:35.847Z,9.80
2023-03-20T13:28:06.531Z,6.80
2023-03-20T13:30:38.676Z,9.00
2023-03-20T13:33:10.918Z,8.20
2023-03-20T13:35:43.809Z,9.00
2023-03-20T13:38:15.096Z,4.40
2023-03-20T13:40:44.743Z,8.20
2023-03-20T13:43:20.989Z,8.20
2023-03-20T13:45:50.802Z,9.00
2023-03-20T13:48:29.466Z,10.00
2023-03-20T13:51:03.716Z,9.60
2023-03-20T13:53:35.061Z,9.00
2023-03-20T13:56:08.990Z,5.60
2023-03-20T13:58:47.729Z,6.00
2023-03-20T14:01:21.671Z,7.00
2023-03-20T14:03:50.183Z,10.80
2023-03-20T14:06:20.138Z,7.00
2023-03-20T14:08:54.445Z,8.60
2023-03-20T14:11:35.371Z,5.20
2023-03-20T14:14:08.568Z,3.40
2023-03-20T14:16:38.495Z,3.60
2023-03-20T14:19:13.329Z,4.00
2023-03-20T14:21:43.432Z,3.40
2023-03-20T14:24:12.300Z,3.40
2023-03-20T14:26:41.965Z,3.40
2023-03-20T14:29:34.691Z,3.00
2023-03-20T14:32:31.324Z,3.60
2023-03-20T14:35:01.617Z,3.80
2023-03-20T14:37:38.281Z,3.40
2023-03-20T14:40:14.421Z,3.00
2023-03-20T14:42:52.278Z,3.20
2023-03-20T14:45:37.703Z,4.00
2023-03-20T14:48:46.123Z,3.00
2023-03-20T14:51:42.533Z,3.80
2023-03-20T14:54:37.338Z,4.00
2023-03-20T14:57:12.974Z,4.00
2023-03-20T14:59:41.172Z,4.00
2023-03-20T15:02:25.225Z,4.00
2023-03-20T15:04:54.687Z,4.00
2023-03-20T15:07:25.451Z,6.00
2023-03-20T15:09:55.024Z,6.00
2023-03-20T15:12:26.211Z,6.40
2023-03-20T15:14:57.074Z,6.40
2023-03-20T15:17:27.716Z,4.80
2023-03-20T15:20:04.523Z,3.00
2023-03-20T15:22:35.138Z,6.00
2023-03-20T15:25:03.258Z,4.00
2023-03-20T15:27:32.060Z,1.00
2023-03-20T15:30:02.090Z,7.00
2023-03-20T15:32:30.608Z,5.60
2023-03-20T15:34:58.863Z,6.20
2023-03-20T15:37:28.739Z,5.20
2023-03-20T15:39:59.253Z,6.00
2023-03-20T15:42:27.734Z,6.60
2023-03-20T15:44:56.330Z,6.00
2023-03-20T15:47:24.784Z,3.00
2023-03-20T15:49:54.318Z,4.00
2023-03-20T15:52:29.191Z,6.00
2023-03-20T15:54:59.230Z,3.60
2023-03-20T15:57:31.450Z,5.20
2023-03-20T16:00:00.796Z,4.00
2023-03-20T16:02:29.710Z,4.00
2023-03-20T16:04:59.087Z,5.20
2023-03-20T16:07:28.973Z,6.40
2023-03-20T16:09:58.599Z,6.20
2023-03-20T16:12:27.649Z,8.00
2023-03-20T16:14:55.977Z,4.00
2023-03-20T16:17:26.407Z,3.00
2023-03-20T16:19:56.985Z,6.00
2023-03-20T16:22:26.484Z,5.20
2023-03-20T16:24:58.087Z,4.80
2023-03-20T16:27:30.066Z,3.40
2023-03-20T16:30:02.490Z,3.00
2023-03-20T16:32:35.648Z,3.00
2023-03-20T16:35:06.227Z,4.00
2023-03-20T16:37:38.775Z,1.80
2023-03-20T16:40:16.113Z,3.40
2023-03-20T16:42:45.630Z,4.00
2023-03-20T16:45:21.346Z,3.00
2023-03-20T16:47:49.858Z,1.40
2023-03-20T16:50:21.971Z,3.00
2023-03-20T16:53:04.737Z,3.60
2023-03-20T16:55:34.535Z,3.80
2023-03-20T16:58:05.438Z,3.20
2023-03-20T17:00:36.299Z,12.20
2023-03-20T17:03:13.094Z,9.00
2023-03-20T17:05:53.849Z,6.60
2023-03-20T17:08:29.216Z,10.60
2023-03-20T17:10:59.064Z,9.60
2023-03-20T17:13:28.512Z,9.80
2023-03-20T17:15:56.726Z,13.80
2023-03-20T17:18:24.810Z,7.00
2023-03-20T17:20:54.636Z,9.80
2023-03-20T17:23:23.193Z,3.20
2023-03-20T17:25:51.751Z,5.20
2023-03-20T17:28:22.482Z,15.00
2023-03-20T17:30:52.754Z,16.60
2023-03-20T17:33:22.072Z,8.60
2023-03-20T17:35:53.037Z,5.60
2023-03-20T17:38:22.810Z,15.20
2023-03-20T17:40:51.225Z,10.60
2023-03-20T17:43:20.587Z,13.80
2023-03-20T17:45:48.709Z,12.20
2023-03-20T17:48:20.556Z,17.40
2023-03-20T17:50:50.309Z,21.00
2023-03-20T17:53:19.240Z,9.00
2023-03-20T17:55:47.358Z,17.80
2023-03-20T17:58:16.937Z,12.20
2023-03-20T18:00:45.154Z,6.40
2023-03-20T18:03:15.385Z,10.20
2023-03-20T18:05:44.990Z,49.80
2023-03-20T18:08:17.127Z,50.80
2023-03-20T18:10:46.071Z,21.20
2023-03-20T18:13:14.224Z,20.20
2023-03-20T18:15:44.524Z,35.40
2023-03-20T18:18:13.526Z,39.40
2023-03-20T18:20:42.284Z,16.40
2023-03-20T18:23:12.963Z,19.80
2023-03-20T18:25:41.199Z,21.00
2023-03-20T18:28:13.434Z,19.00
2023-03-20T18:30:42.270Z,14.20
2023-03-20T18:33:10.521Z,37.40
2023-03-20T18:35:39.177Z,41.40
2023-03-20T18:38:09.345Z,19.40
2023-03-20T18:40:39.099Z,16.20
2023-03-20T18:43:07.280Z,38.80
2023-03-20T18:45:35.352Z,27.00
2023-03-20T18:48:04.198Z,39.00
2023-03-20T18:50:36.581Z,33.40
2023-03-20T18:53:05.790Z,27.60
2023-03-20T18:55:33.945Z,28.60
2023-03-20T18:58:06.248Z,25.60
2023-03-20T19:00:37.995Z,30.60
2023-03-20T19:03:06.342Z,35.40
2023-03-20T19:05:34.546Z,19.20
2023-03-20T19:08:03.564Z,38.00
2023-03-20T19:10:33.969Z,18.80
2023-03-20T19:13:05.442Z,9.60
2023-03-20T19:15:35.777Z,20.00
2023-03-20T19:18:04.031Z,16.00
2023-03-20T19:20:36.208Z,36.00
2023-03-20T19:23:06.927Z,49.40
2023-03-20T19:25:35.033Z,37.00
2023-03-20T19:28:05.634Z,45.00
2023-03-20T19:30:35.288Z,37.00
2023-03-20T19:33:03.676Z,30.20
2023-03-20T19:36:11.897Z,48.40
2023-03-20T19:38:21.409Z,24.80
2023-03-20T19:40:52.890Z,47.60
2023-03-20T19:43:22.598Z,49.20
2023-03-20T19:45:52.045Z,49.40
2023-03-20T19:48:21.105Z,24.80
2023-03-20T19:50:51.301Z,19.80
2023-03-20T19:53:21.008Z,21.00
2023-03-20T19:55:49.144Z,48.40
2023-03-20T19:58:17.346Z,35.80
2023-03-20T20:00:58.960Z,29.20
2023-03-20T20:03:27.839Z,26.20
2023-03-20T20:05:55.962Z,26.20
2023-03-20T20:08:43.450Z,29.60
2023-03-20T20:11:14.626Z,27.40
2023-03-20T20:14:04.279Z,44.80
2023-03-20T20:16:33.170Z,34.60
2023-03-20T20:19:01.403Z,38.80
2023-03-20T20:24:17.966Z,29.20
2023-03-20T20:27:19.264Z,46.00
2023-03-20T20:29:39.240Z,18.40
2023-03-20T20:32:10.268Z,42.00
2023-03-20T20:40:18.260Z,18.00
2023-03-20T20:42:49.277Z,15.00
2023-03-20T20:45:17.338Z,15.20
2023-03-20T20:47:47.687Z,37.60
2023-03-20T20:50:16.592Z,36.80
2023-03-20T20:52:44.655Z,31.80
2023-03-20T20:55:23.143Z,23.60
2023-03-20T20:57:52.210Z,37.20
2023-03-20T21:00:21.317Z,37.80
2023-03-20T21:02:50.944Z,13.00
2023-03-20T21:05:19.854Z,31.60
2023-03-20T21:07:48.828Z,14.60
2023-03-20T21:10:18.639Z,17.40
2023-03-20T21:12:58.438Z,13.00
2023-03-20T21:15:27.909Z,13.00
2023-03-20T21:18:01.559Z,22.80
2023-03-20T21:20:30.243Z,20.00
2023-03-20T21:22:58.378Z,9.00
2023-03-20T21:25:39.692Z,25.60
2023-03-20T21:28:09.936Z,3.60
2023-03-20T21:30:46.737Z,3.20
2023-03-20T21:33:26.216Z,18.00
2023-03-20T21:35:54.677Z,6.20
2023-03-20T21:38:58.464Z,6.20
2023-03-20T21:41:11.324Z,6.00
2023-03-20T21:43:39.919Z,19.20
2023-03-20T21:49:43.657Z,14.20
2023-03-20T21:52:43.979Z,12.20
2023-03-20T22:03:10.288Z,4.80
2023-03-20T22:06:45.700Z,4.20
2023-03-20T22:09:31.014Z,4.20
2023-03-20T22:12:01.856Z,6.40
2023-03-20T22:26:28.535Z,13.00
2023-03-20T22:31:43.394Z,12.80
2023-03-20T22:34:30.885Z,13.20
2023-03-20T22:37:40.788Z,17.60
2023-03-20T22:45:11.985Z,4.40
2023-03-20T22:47:40.633Z,6.80
2023-03-20T22:50:10.950Z,4.00
2023-03-20T22:52:48.513Z,4.80
2023-03-20T22:55:18.608Z,4.00
2023-03-20T22:58:04.041Z,3.20
2023-03-20T23:00:34.934Z,4.40
2023-03-20T23:03:19.535Z,13.20
2023-03-20T23:05:51.677Z,14.40
2023-03-20T23:08:19.800Z,12.80
2023-03-20T23:10:49.916Z,13.00
2023-03-20T23:13:18.586Z,14.00
2023-03-20T23:15:50.676Z,7.00
2023-03-20T23:18:19.380Z,9.40
2023-03-20T23:20:47.624Z,8.40
2023-03-20T23:23:15.719Z,6.40
2023-03-20T23:25:45.383Z,17.00
2023-03-20T23:28:14.954Z,19.20
2023-03-20T23:30:49.780Z,7.00
2023-03-20T23:33:22.494Z,8.80
2023-03-20T23:35:55.170Z,13.20
2023-03-20T23:38:23.475Z,9.80
2023-03-20T23:40:51.695Z,12.20
2023-03-20T23:43:21.257Z,9.00
2023-03-20T23:45:49.504Z,13.80
2023-03-20T23:48:18.508Z,20.20
2023-03-20T23:50:53.340Z,14.20
2023-03-20T23:53:22.035Z,7.00
2023-03-20T23:55:50.482Z,8.60
2023-03-20T23:58:19.769Z,6.20
